Time;durP1;ratioP1;P1;durP2;ratioP2;P2;SDS_P1;SDS_P2;PMS_P1;PMS_P2;Temp;Humidity;BMP_temperature;BMP_pressure;BME280_temperature;BME280_humidity;BME280_pressure;Samples;Min_cycle;Max_cycle;Signal;HPM_P1;HPM_P2
2023/03/31 00:00:27;;;;;;;23.80;5.07;;;11.00;99.90;;;;;;6277268;22;20184;-80
2023/03/31 00:02:54;;;;;;;26.97;5.60;;;10.90;99.90;;;;;;6276965;22;20188;-80
2023/03/31 00:05:23;;;;;;;26.77;5.07;;;11.00;99.90;;;;;;6276048;22;20177;-79
2023/03/31 00:07:59;;;;;;;26.77;6.07;;;10.90;99.90;;;;;;6277411;22;20223;-81
2023/03/31 00:10:26;;;;;;;21.10;5.03;;;10.90;99.90;;;;;;6277367;22;20239;-81
2023/03/31 00:12:53;;;;;;;22.80;4.83;;;10.90;99.90;;;;;;6276114;22;20203;-81
2023/03/31 00:15:21;;;;;;;24.93;5.60;;;10.90;99.90;;;;;;6277322;22;20263;-81
2023/03/31 00:17:48;;;;;;;25.30;6.43;;;10.90;99.90;;;;;;6275761;22;20173;-81
2023/03/31 00:20:16;;;;;;;22.17;5.13;;;10.90;99.90;;;;;;6277126;22;20588;-79
2023/03/31 00:22:45;;;;;;;22.13;5.03;;;10.90;99.90;;;;;;6276631;22;20271;-84
2023/03/31 00:25:12;;;;;;;25.77;5.47;;;11.00;99.90;;;;;;6275730;22;20215;-81
2023/03/31 00:27:43;;;;;;;28.30;6.03;;;11.00;99.90;;;;;;6276918;22;20193;-81
2023/03/31 00:30:11;;;;;;;18.77;4.43;;;11.00;99.90;;;;;;6277497;22;20161;-80
2023/03/31 00:32:38;;;;;;;24.40;4.33;;;11.00;99.90;;;;;;6276071;22;20171;-79
2023/03/31 00:35:05;;;;;;;20.10;4.97;;;10.90;99.90;;;;;;6276841;22;20201;-80
2023/03/31 00:37:32;;;;;;;30.57;5.70;;;10.90;99.90;;;;;;6276714;22;20165;-79
2023/03/31 00:40:01;;;;;;;20.97;4.63;;;10.90;99.90;;;;;;6275635;22;20169;-79
2023/03/31 00:42:28;;;;;;;22.37;5.67;;;10.90;99.90;;;;;;6276926;22;20200;-80
2023/03/31 00:45:23;;;;;;;21.77;4.80;;;10.80;99.90;;;;;;6276726;22;20584;-79
2023/03/31 00:47:54;;;;;;;21.27;4.80;;;10.80;99.90;;;;;;6276161;22;20589;-80
2023/03/31 00:50:24;;;;;;;28.73;5.47;;;10.80;99.90;;;;;;6276283;22;20173;-80
2023/03/31 00:52:56;;;;;;;22.80;4.73;;;10.80;99.90;;;;;;6276070;22;20164;-80
2023/03/31 00:55:30;;;;;;;16.23;3.97;;;10.90;99.90;;;;;;6277464;22;20177;-80
2023/03/31 00:58:00;;;;;;;22.47;4.90;;;10.90;99.90;;;;;;6276323;22;20169;-80
2023/03/31 01:00:29;;;;;;;20.67;4.90;;;10.90;99.90;;;;;;6276533;22;20169;-80
2023/03/31 01:02:58;;;;;;;22.50;4.57;;;10.90;99.90;;;;;;6276788;22;20191;-81
2023/03/31 01:05:29;;;;;;;29.57;5.60;;;10.90;99.90;;;;;;6276569;22;20175;-79
2023/03/31 01:07:57;;;;;;;19.87;4.63;;;10.90;99.90;;;;;;6275958;22;20212;-81
2023/03/31 01:10:26;;;;;;;22.97;5.40;;;10.90;99.90;;;;;;6276912;22;20208;-79
2023/03/31 01:12:55;;;;;;;20.43;4.37;;;10.90;99.90;;;;;;6276444;22;20208;-78
2023/03/31 01:15:23;;;;;;;22.13;4.47;;;10.90;99.90;;;;;;6276362;22;20196;-79
2023/03/31 01:17:54;;;;;;;14.27;4.03;;;10.90;99.90;;;;;;6276147;22;20165;-80
2023/03/31 01:20:32;;;;;;;18.90;5.13;;;11.00;99.90;;;;;;6277082;22;20161;-80
2023/03/31 01:23:30;;;;;;;15.30;3.40;;;10.90;99.90;;;;;;6275711;22;20553;-81
2023/03/31 01:26:29;;;;;;;17.93;3.83;;;10.90;99.90;;;;;;6277252;22;20271;-81
2023/03/31 01:29:04;;;;;;;19.37;4.50;;;10.90;99.90;;;;;;6225260;22;20600;-80
2023/03/31 01:32:07;;;;;;;25.60;5.30;;;10.90;99.90;;;;;;6277050;22;20763;-81
2023/03/31 01:35:09;;;;;;;22.33;4.60;;;10.90;99.90;;;;;;6276693;22;20259;-81
2023/03/31 01:38:28;;;;;;;16.70;4.00;;;10.90;99.90;;;;;;6271722;22;20275;-81
2023/03/31 01:41:19;;;;;;;17.50;5.03;;;10.90;99.90;;;;;;6276158;22;20165;-83
2023/03/31 01:43:55;;;;;;;13.33;4.83;;;10.90;99.90;;;;;;6275215;22;20621;-79
2023/03/31 01:46:29;;;;;;;12.17;4.37;;;10.80;99.90;;;;;;6276430;22;20187;-80
2023/03/31 01:49:05;;;;;;;16.20;4.80;;;10.80;99.90;;;;;;6276260;22;20669;-79
2023/03/31 01:51:35;;;;;;;14.93;5.07;;;10.80;99.90;;;;;;6276433;22;20247;-80
2023/03/31 01:54:11;;;;;;;17.70;5.20;;;10.80;99.90;;;;;;6276582;22;20177;-80
2023/03/31 01:56:45;;;;;;;16.47;5.77;;;10.90;99.90;;;;;;6275465;22;20191;-81
2023/03/31 01:59:16;;;;;;;15.70;5.13;;;10.90;99.90;;;;;;6275976;22;20180;-80
2023/03/31 02:01:51;;;;;;;15.80;5.27;;;10.80;99.90;;;;;;6275817;22;20191;-79
2023/03/31 02:04:23;;;;;;;16.90;5.37;;;10.80;99.90;;;;;;6275840;22;20179;-80
2023/03/31 02:06:55;;;;;;;12.40;4.50;;;10.80;99.90;;;;;;6276159;22;20165;-79
2023/03/31 02:09:26;;;;;;;17.97;5.23;;;10.80;99.90;;;;;;6276180;22;20219;-80
2023/03/31 02:11:57;;;;;;;18.27;5.37;;;10.80;99.90;;;;;;6275635;22;20163;-81
2023/03/31 02:14:28;;;;;;;15.97;4.13;;;10.80;99.90;;;;;;6276036;22;20165;-81
2023/03/31 02:17:01;;;;;;;15.13;5.53;;;10.70;99.90;;;;;;6275371;22;20242;-80
2023/03/31 02:19:32;;;;;;;15.77;5.00;;;10.70;99.90;;;;;;6275366;22;20185;-79
2023/03/31 02:22:00;;;;;;;18.67;5.07;;;10.70;99.90;;;;;;6274795;22;20204;-81
2023/03/31 02:24:30;;;;;;;18.40;5.67;;;10.70;99.90;;;;;;6275177;22;20927;-80
2023/03/31 02:27:04;;;;;;;13.17;4.37;;;10.70;99.90;;;;;;6275904;22;20173;-83
2023/03/31 02:29:31;;;;;;;16.40;5.37;;;10.70;99.90;;;;;;6276346;22;20172;-81
2023/03/31 02:32:04;;;;;;;16.47;5.10;;;10.70;99.90;;;;;;6275967;22;20200;-81
2023/03/31 02:34:31;;;;;;;18.73;5.47;;;10.70;99.90;;;;;;6275378;22;20187;-81
2023/03/31 02:36:58;;;;;;;17.67;4.97;;;10.70;99.90;;;;;;6275279;22;20236;-80
2023/03/31 02:39:28;;;;;;;13.10;5.03;;;10.70;99.90;;;;;;6274477;22;20658;-82
2023/03/31 02:41:55;;;;;;;10.90;4.73;;;10.60;99.90;;;;;;6275830;22;20165;-83
2023/03/31 02:44:24;;;;;;;13.77;5.13;;;10.70;99.90;;;;;;6275774;22;20188;-81
2023/03/31 02:46:51;;;;;;;14.63;5.10;;;10.70;99.90;;;;;;6274961;22;20169;-81
2023/03/31 02:49:20;;;;;;;15.37;5.40;;;10.70;99.90;;;;;;6275173;22;20212;-80
2023/03/31 02:52:16;;;;;;;9.90;5.90;;;10.70;99.90;;;;;;6275449;22;20642;-79
2023/03/31 02:55:08;;;;;;;12.87;4.47;;;10.70;99.90;;;;;;6275344;22;20179;-80
2023/03/31 02:57:58;;;;;;;10.27;4.53;;;10.70;99.90;;;;;;6275666;22;20253;-81
2023/03/31 03:00:38;;;;;;;7.00;3.93;;;10.70;99.90;;;;;;6249800;22;20215;-78
2023/03/31 03:03:18;;;;;;;8.37;4.23;;;10.70;99.90;;;;;;6275812;22;20239;-82
2023/03/31 03:05:53;;;;;;;14.83;3.70;;;10.70;99.90;;;;;;6275672;22;20176;-80
2023/03/31 03:08:28;;;;;;;9.23;3.47;;;10.70;99.90;;;;;;6275206;22;20192;-83
2023/03/31 03:11:05;;;;;;;7.90;3.20;;;10.70;99.90;;;;;;6276002;22;20192;-82
2023/03/31 03:13:36;;;;;;;14.70;3.77;;;10.70;99.90;;;;;;6275324;22;20169;-83
2023/03/31 03:16:12;;;;;;;11.93;4.00;;;10.60;99.90;;;;;;6276373;22;20189;-84
2023/03/31 03:18:39;;;;;;;13.17;3.80;;;10.70;99.90;;;;;;6275995;22;20440;-82
2023/03/31 03:21:06;;;;;;;12.47;4.27;;;10.70;99.90;;;;;;6275798;22;20636;-84
2023/03/31 03:23:33;;;;;;;11.07;4.70;;;10.70;99.90;;;;;;6276292;22;20176;-85
2023/03/31 03:26:00;;;;;;;17.63;5.73;;;10.70;99.90;;;;;;6276245;22;20185;-81
2023/03/31 03:28:27;;;;;;;10.67;4.63;;;10.70;99.90;;;;;;6275305;22;20250;-85
2023/03/31 03:30:54;;;;;;;14.33;5.37;;;10.70;99.90;;;;;;6275480;22;20227;-83
2023/03/31 03:33:23;;;;;;;15.07;6.33;;;10.70;99.90;;;;;;6275261;22;20222;-80
2023/03/31 03:35:50;;;;;;;12.77;5.90;;;10.70;99.90;;;;;;6274783;22;20176;-81
2023/03/31 03:38:17;;;;;;;13.67;6.90;;;10.70;99.90;;;;;;6274758;22;20176;-80
2023/03/31 03:40:45;;;;;;;14.60;6.20;;;10.70;99.90;;;;;;6275188;22;20192;-80
2023/03/31 03:43:12;;;;;;;12.93;5.60;;;10.80;99.90;;;;;;6273781;22;20200;-81
2023/03/31 03:45:39;;;;;;;15.33;5.80;;;10.70;99.90;;;;;;6275611;22;20204;-80
2023/03/31 03:48:06;;;;;;;13.97;5.87;;;10.70;99.90;;;;;;6275301;22;20489;-82
2023/03/31 03:50:37;;;;;;;17.37;5.27;;;10.70;99.90;;;;;;6274087;22;20168;-80
2023/03/31 03:53:04;;;;;;;14.50;6.17;;;10.80;99.90;;;;;;6275360;22;20215;-79
2023/03/31 03:55:31;;;;;;;13.77;5.47;;;10.70;99.90;;;;;;6274884;22;20171;-79
2023/03/31 03:57:58;;;;;;;14.80;4.70;;;10.70;99.90;;;;;;6273875;22;20240;-79
2023/03/31 04:00:25;;;;;;;11.50;4.80;;;10.70;99.90;;;;;;6274974;22;20199;-81
2023/03/31 04:02:52;;;;;;;13.67;5.03;;;10.70;99.90;;;;;;6274128;22;20164;-81
2023/03/31 04:05:19;;;;;;;12.00;5.00;;;10.70;99.90;;;;;;6274552;22;20432;-81
2023/03/31 04:07:47;;;;;;;17.60;5.60;;;10.70;99.90;;;;;;6275210;22;20224;-82
2023/03/31 04:10:14;;;;;;;14.63;4.70;;;10.70;99.90;;;;;;6274122;22;20177;-80
2023/03/31 04:12:41;;;;;;;11.80;5.57;;;10.70;99.90;;;;;;6274803;22;20251;-81
2023/03/31 04:15:09;;;;;;;15.60;5.13;;;10.70;99.90;;;;;;6275033;22;20240;-80
2023/03/31 04:17:36;;;;;;;11.23;4.90;;;10.70;99.90;;;;;;6274247;22;20429;-78
2023/03/31 04:20:06;;;;;;;11.00;4.93;;;10.70;99.90;;;;;;6274808;22;20173;-83
2023/03/31 04:22:39;;;;;;;11.83;5.00;;;10.70;99.90;;;;;;6275406;22;20220;-78
2023/03/31 04:25:13;;;;;;;10.40;3.97;;;10.70;99.90;;;;;;6274999;22;20189;-81
2023/03/31 04:27:45;;;;;;;12.23;3.83;;;10.70;99.90;;;;;;6275049;22;20194;-81
2023/03/31 04:30:21;;;;;;;11.40;3.93;;;10.70;99.90;;;;;;6275738;22;20276;-81
2023/03/31 04:32:49;;;;;;;6.90;3.13;;;10.70;99.90;;;;;;6274483;22;20770;-82
2023/03/31 04:35:17;;;;;;;9.83;2.83;;;10.60;99.90;;;;;;6275188;22;20195;-79
2023/03/31 04:37:44;;;;;;;8.87;3.07;;;10.60;99.90;;;;;;6274618;22;20172;-81
2023/03/31 04:40:12;;;;;;;6.87;3.13;;;10.60;99.90;;;;;;6274936;22;20566;-79
2023/03/31 04:42:39;;;;;;;9.13;3.80;;;10.60;99.90;;;;;;6276620;22;20256;-81
2023/03/31 04:45:07;;;;;;;9.17;3.87;;;10.60;99.90;;;;;;6276504;22;20173;-78
2023/03/31 04:47:34;;;;;;;8.07;4.43;;;10.50;99.90;;;;;;6276780;22;20165;-79
2023/03/31 04:50:01;;;;;;;9.73;4.03;;;10.50;99.90;;;;;;6276956;22;20172;-79
2023/03/31 04:52:28;;;;;;;11.17;3.77;;;10.50;99.90;;;;;;6276272;22;20596;-79
2023/03/31 04:54:55;;;;;;;8.20;4.13;;;10.40;99.90;;;;;;6276679;22;20438;-80
2023/03/31 04:57:23;;;;;;;9.67;4.43;;;10.40;99.90;;;;;;6276869;22;20236;-81
2023/03/31 04:59:50;;;;;;;8.57;5.03;;;10.40;99.90;;;;;;6276008;22;20252;-80
2023/03/31 05:02:22;;;;;;;13.57;4.90;;;10.40;99.90;;;;;;6276730;22;20491;-79
2023/03/31 05:04:49;;;;;;;12.23;4.87;;;10.40;99.90;;;;;;6276583;22;20577;-82
2023/03/31 05:07:17;;;;;;;9.70;5.53;;;10.40;99.90;;;;;;6276312;22;20223;-81
2023/03/31 05:09:45;;;;;;;10.27;5.20;;;10.40;99.90;;;;;;6275638;22;20188;-82
2023/03/31 05:12:12;;;;;;;13.30;5.33;;;10.40;99.90;;;;;;6277243;22;20169;-79
2023/03/31 05:14:40;;;;;;;13.63;5.63;;;10.40;99.90;;;;;;6276254;22;20222;-83
2023/03/31 05:17:07;;;;;;;10.47;6.50;;;10.40;99.90;;;;;;6277414;22;20172;-82
2023/03/31 05:19:34;;;;;;;13.57;6.63;;;10.40;99.90;;;;;;6276834;22;20169;-83
2023/03/31 05:22:01;;;;;;;12.33;6.23;;;10.40;99.90;;;;;;6276441;22;20538;-80
2023/03/31 05:24:28;;;;;;;11.60;6.97;;;10.40;99.90;;;;;;6277095;22;20250;-81
2023/03/31 05:26:56;;;;;;;17.17;6.87;;;10.50;99.90;;;;;;6276774;22;20172;-81
2023/03/31 05:29:24;;;;;;;14.27;6.27;;;10.40;99.90;;;;;;6276164;22;20220;-82
2023/03/31 05:31:53;;;;;;;15.10;7.00;;;10.50;99.90;;;;;;6277230;22;20279;-84
2023/03/31 05:34:20;;;;;;;15.33;6.17;;;10.50;99.90;;;;;;6277053;22;20175;-81
2023/03/31 05:36:49;;;;;;;13.57;6.70;;;10.50;99.90;;;;;;6250137;22;20175;-84
2023/03/31 05:39:17;;;;;;;13.33;7.17;;;10.50;99.90;;;;;;6277477;22;20401;-83
2023/03/31 05:41:44;;;;;;;12.27;7.27;;;10.50;99.90;;;;;;6276142;22;20218;-83
2023/03/31 05:44:11;;;;;;;12.40;6.13;;;10.50;99.90;;;;;;6276840;22;20172;-83
2023/03/31 05:46:38;;;;;;;13.67;6.70;;;10.50;99.90;;;;;;6277673;22;20179;-82
2023/03/31 05:49:06;;;;;;;11.57;7.37;;;10.60;99.90;;;;;;6276819;22;20453;-82
2023/03/31 05:51:34;;;;;;;14.50;7.50;;;10.60;99.90;;;;;;6276117;22;20173;-81
2023/03/31 05:54:01;;;;;;;15.43;7.33;;;10.60;99.90;;;;;;6277313;22;20476;-86
2023/03/31 05:56:28;;;;;;;15.80;7.67;;;10.60;99.90;;;;;;6276236;22;20597;-83
2023/03/31 05:58:55;;;;;;;12.77;7.20;;;10.60;99.90;;;;;;6276228;22;20204;-83
2023/03/31 06:01:23;;;;;;;9.43;6.50;;;10.60;99.90;;;;;;6276411;22;20165;-85
2023/03/31 06:03:50;;;;;;;15.27;7.67;;;10.60;99.90;;;;;;6274842;22;20169;-83
2023/03/31 06:06:19;;;;;;;9.60;6.77;;;10.60;99.90;;;;;;6276453;22;20218;-82
2023/03/31 06:08:46;;;;;;;14.60;7.07;;;10.60;99.90;;;;;;6276458;22;20194;-82
2023/03/31 06:11:15;;;;;;;12.03;6.80;;;10.60;99.90;;;;;;6275874;22;20168;-78
2023/03/31 06:13:43;;;;;;;13.90;6.80;;;10.60;99.90;;;;;;6276495;22;20176;-85
2023/03/31 06:16:11;;;;;;;18.53;7.13;;;10.70;99.90;;;;;;6277026;22;20169;-87
2023/03/31 06:18:38;;;;;;;14.97;6.77;;;10.60;99.90;;;;;;6276465;22;20188;-84
2023/03/31 06:21:06;;;;;;;9.97;6.97;;;10.60;99.90;;;;;;6276137;22;20220;-80
2023/03/31 06:23:34;;;;;;;9.43;6.03;;;10.70;99.90;;;;;;6276321;22;20169;-82
2023/03/31 06:26:03;;;;;;;8.97;6.33;;;10.70;99.90;;;;;;6277081;22;20275;-82
2023/03/31 06:28:30;;;;;;;12.90;6.17;;;10.70;99.90;;;;;;6276423;22;20193;-82
2023/03/31 06:31:02;;;;;;;8.73;5.63;;;10.70;99.90;;;;;;6275723;22;20184;-83
2023/03/31 06:33:29;;;;;;;13.07;7.23;;;10.70;99.90;;;;;;6276455;22;20251;-86
2023/03/31 06:35:56;;;;;;;9.10;6.13;;;10.70;99.90;;;;;;6276471;22;20206;-83
2023/03/31 06:38:23;;;;;;;15.80;7.00;;;10.70;99.90;;;;;;6276126;22;20439;-84
2023/03/31 06:40:52;;;;;;;10.33;6.00;;;10.70;99.90;;;;;;6276546;22;20251;-81
2023/03/31 06:43:19;;;;;;;12.40;5.73;;;10.70;99.90;;;;;;6276112;22;20280;-85
2023/03/31 06:45:46;;;;;;;14.10;6.83;;;10.70;99.90;;;;;;6275707;22;20252;-84
2023/03/31 06:48:13;;;;;;;12.60;5.53;;;10.70;99.90;;;;;;6274928;22;20214;-82
2023/03/31 06:50:41;;;;;;;12.87;6.00;;;10.70;99.90;;;;;;6275902;22;20203;-80
2023/03/31 06:53:08;;;;;;;8.13;4.93;;;10.70;99.90;;;;;;6275675;22;20236;-81
2023/03/31 06:55:36;;;;;;;8.43;5.07;;;10.70;99.90;;;;;;6276044;22;20244;-80
2023/03/31 06:58:04;;;;;;;11.20;5.30;;;10.70;99.90;;;;;;6275534;22;20208;-82
2023/03/31 07:00:32;;;;;;;8.00;4.50;;;10.80;99.90;;;;;;6274572;22;20176;-80
2023/03/31 07:03:00;;;;;;;11.90;4.60;;;10.80;99.90;;;;;;6275140;22;20215;-78
2023/03/31 07:05:27;;;;;;;9.17;4.30;;;10.80;99.90;;;;;;6274760;22;20254;-79
2023/03/31 07:07:54;;;;;;;10.17;4.43;;;10.70;99.90;;;;;;6273536;22;20169;-80
2023/03/31 07:10:21;;;;;;;10.83;4.10;;;10.70;99.90;;;;;;6274274;22;20193;-78
2023/03/31 07:12:48;;;;;;;8.43;4.57;;;10.80;99.90;;;;;;6273884;22;20184;-83
2023/03/31 07:15:17;;;;;;;7.40;3.77;;;10.80;99.90;;;;;;6274428;22;20172;-78
2023/03/31 07:17:44;;;;;;;8.10;3.60;;;10.80;99.90;;;;;;6273749;22;20169;-78
2023/03/31 07:20:13;;;;;;;7.93;3.47;;;10.80;99.90;;;;;;6275422;22;20621;-79
2023/03/31 07:22:41;;;;;;;6.80;3.50;;;10.80;99.90;;;;;;6274009;22;20203;-78
2023/03/31 07:25:09;;;;;;;5.40;3.30;;;10.90;99.90;;;;;;6274734;22;20511;-83
2023/03/31 07:27:36;;;;;;;6.63;3.30;;;10.90;99.90;;;;;;6273923;22;20169;-78
2023/03/31 07:30:06;;;;;;;10.00;3.83;;;10.90;99.90;;;;;;6274639;22;20201;-80
2023/03/31 07:32:38;;;;;;;6.33;3.10;;;10.90;99.90;;;;;;6274918;22;20204;-80
2023/03/31 07:35:06;;;;;;;8.70;3.40;;;10.90;99.90;;;;;;6274523;22;20165;-79
2023/03/31 07:37:35;;;;;;;8.73;3.70;;;11.00;99.90;;;;;;6275316;22;20244;-80
2023/03/31 07:40:03;;;;;;;5.57;2.87;;;11.00;99.90;;;;;;6275156;22;20530;-82
2023/03/31 07:42:30;;;;;;;8.20;3.00;;;11.00;99.90;;;;;;6275717;22;20443;-83
2023/03/31 07:44:57;;;;;;;7.57;2.87;;;11.00;99.90;;;;;;6275587;22;20192;-80
2023/03/31 07:47:25;;;;;;;7.70;3.50;;;11.00;99.90;;;;;;6275664;22;20545;-82
2023/03/31 07:49:53;;;;;;;7.63;3.37;;;11.00;99.90;;;;;;6275438;22;20271;-82
2023/03/31 07:52:20;;;;;;;11.37;4.03;;;11.10;99.90;;;;;;6275749;22;20680;-84
2023/03/31 07:54:47;;;;;;;8.60;3.73;;;11.10;99.90;;;;;;6276342;22;20218;-82
2023/03/31 07:57:15;;;;;;;7.80;4.03;;;11.10;99.90;;;;;;6276871;22;20491;-84
2023/03/31 07:59:42;;;;;;;9.73;3.67;;;11.20;99.90;;;;;;6276151;22;20168;-84
2023/03/31 08:02:11;;;;;;;6.30;3.67;;;11.20;99.90;;;;;;6276396;22;20431;-82
2023/03/31 08:04:40;;;;;;;8.03;3.80;;;11.20;99.90;;;;;;6276411;22;20243;-85
2023/03/31 08:07:09;;;;;;;6.83;4.00;;;11.30;99.90;;;;;;6275751;22;20173;-83
2023/03/31 08:09:36;;;;;;;7.33;3.97;;;11.30;99.90;;;;;;6274886;22;20193;-83
2023/03/31 08:12:03;;;;;;;8.60;4.10;;;11.40;99.90;;;;;;6276130;22;20526;-82
2023/03/31 08:14:30;;;;;;;7.63;3.53;;;11.50;99.90;;;;;;6276234;22;20200;-82
2023/03/31 08:16:59;;;;;;;7.83;4.30;;;11.50;99.90;;;;;;6278474;22;20212;-81
2023/03/31 08:19:25;;;;;;;7.43;4.03;;;11.60;99.90;;;;;;6278103;22;20161;-82
2023/03/31 08:21:53;;;;;;;10.50;3.80;;;11.60;99.90;;;;;;6278222;22;20648;-85
2023/03/31 08:24:21;;;;;;;9.47;3.40;;;11.70;99.90;;;;;;6278218;22;20185;-84
2023/03/31 08:26:48;;;;;;;7.77;3.47;;;11.80;99.90;;;;;;6278832;22;20179;-83
2023/03/31 08:29:15;;;;;;;12.03;3.90;;;11.80;99.90;;;;;;6278485;22;20203;-84
2023/03/31 08:31:42;;;;;;;8.43;3.60;;;11.90;99.90;;;;;;6279286;22;20248;-84
2023/03/31 08:34:09;;;;;;;11.60;3.97;;;11.90;99.90;;;;;;6279398;22;20175;-84
2023/03/31 08:36:36;;;;;;;10.90;3.50;;;12.00;99.90;;;;;;6281478;22;20172;-83
2023/03/31 08:39:05;;;;;;;12.47;4.23;;;12.10;99.90;;;;;;6282491;22;20161;-83
2023/03/31 08:41:47;;;;;;;11.67;3.73;;;12.10;99.90;;;;;;6279221;22;20177;-84
2023/03/31 08:44:18;;;;;;;9.83;3.60;;;12.30;99.90;;;;;;6279538;22;20175;-83
2023/03/31 08:46:45;;;;;;;10.80;4.10;;;12.40;99.90;;;;;;6279243;22;20182;-83
2023/03/31 08:49:16;;;;;;;10.77;3.07;;;12.50;99.90;;;;;;6279811;22;20196;-88
2023/03/31 08:51:49;;;;;;;10.63;3.23;;;12.60;99.90;;;;;;6278808;22;20164;-83
2023/03/31 08:54:20;;;;;;;13.03;3.80;;;12.60;99.90;;;;;;6278615;22;20161;-84
2023/03/31 08:56:50;;;;;;;14.03;3.40;;;12.70;99.90;;;;;;6279013;22;20167;-85
2023/03/31 08:59:25;;;;;;;12.33;3.73;;;12.80;99.90;;;;;;6276562;22;20199;-84
2023/03/31 09:02:00;;;;;;;11.97;3.13;;;13.00;99.90;;;;;;6278691;22;20243;-85
2023/03/31 09:04:44;;;;;;;13.00;3.13;;;13.10;99.90;;;;;;6277812;22;20221;-84
2023/03/31 09:07:16;;;;;;;9.13;3.33;;;13.20;99.90;;;;;;6278038;22;20165;-85
2023/03/31 09:09:52;;;;;;;10.90;3.83;;;13.30;99.90;;;;;;6278605;22;20263;-84
2023/03/31 09:12:23;;;;;;;9.00;2.90;;;13.30;99.90;;;;;;6276965;22;20561;-85
2023/03/31 09:14:59;;;;;;;11.40;3.50;;;13.40;99.90;;;;;;6277530;22;20560;-85
2023/03/31 09:17:29;;;;;;;12.13;2.67;;;13.40;99.90;;;;;;6277541;22;20196;-86
2023/03/31 09:20:00;;;;;;;11.17;3.27;;;13.50;99.90;;;;;;6277229;22;20161;-86
2023/03/31 09:22:30;;;;;;;9.80;2.90;;;13.50;99.90;;;;;;6277162;22;20200;-86
2023/03/31 09:25:02;;;;;;;16.33;4.40;;;13.40;99.90;;;;;;6277320;22;20189;-86
2023/03/31 09:27:35;;;;;;;12.97;3.40;;;13.30;99.90;;;;;;6275948;22;20210;-84
2023/03/31 09:30:09;;;;;;;15.37;3.83;;;13.20;99.90;;;;;;6275940;22;20196;-84
2023/03/31 09:32:38;;;;;;;10.43;3.20;;;13.20;99.90;;;;;;6277076;22;20255;-83
2023/03/31 09:35:17;;;;;;;10.43;3.50;;;13.20;99.90;;;;;;6276283;22;20561;-83
2023/03/31 09:37:44;;;;;;;8.93;3.07;;;13.10;99.90;;;;;;6275756;22;20165;-82
2023/03/31 09:40:17;;;;;;;9.67;3.40;;;13.10;99.90;;;;;;6274294;22;20199;-83
2023/03/31 09:42:47;;;;;;;10.57;3.97;;;13.00;99.90;;;;;;6275213;22;20188;-83
2023/03/31 09:45:19;;;;;;;6.87;2.87;;;13.00;99.90;;;;;;6277031;22;20179;-80
2023/03/31 09:47:50;;;;;;;9.03;3.20;;;13.00;99.90;;;;;;6276164;22;20204;-81
2023/03/31 09:50:18;;;;;;;13.03;3.87;;;12.90;99.90;;;;;;6276601;22;20193;-82
2023/03/31 09:52:50;;;;;;;10.23;3.10;;;12.90;99.90;;;;;;6277401;22;20251;-85
2023/03/31 09:55:21;;;;;;;12.77;3.53;;;12.90;99.90;;;;;;6275927;22;20168;-82
2023/03/31 09:57:50;;;;;;;6.97;2.57;;;13.00;99.90;;;;;;6277617;22;20172;-82
2023/03/31 10:00:19;;;;;;;8.97;3.60;;;13.00;99.90;;;;;;6276475;22;20192;-83
2023/03/31 10:02:50;;;;;;;8.83;3.30;;;13.10;99.90;;;;;;6277239;22;20161;-84
2023/03/31 10:05:27;;;;;;;12.47;3.47;;;13.20;99.90;;;;;;6278073;22;20165;-86
2023/03/31 10:08:20;;;;;;;9.33;3.20;;;13.30;99.90;;;;;;6278311;22;20207;-88
2023/03/31 10:10:50;;;;;;;5.87;2.03;;;13.20;99.90;;;;;;6277106;22;20658;-86
2023/03/31 10:13:22;;;;;;;13.17;2.90;;;13.20;99.90;;;;;;6277391;22;20164;-85
2023/03/31 10:15:52;;;;;;;10.43;3.00;;;13.20;99.90;;;;;;6276483;22;21008;-84
2023/03/31 10:18:20;;;;;;;12.70;3.03;;;13.30;99.90;;;;;;6277660;22;20239;-86
2023/03/31 10:20:51;;;;;;;10.93;3.07;;;13.30;99.90;;;;;;6277396;22;20239;-84
2023/03/31 10:23:24;;;;;;;8.10;3.10;;;13.30;99.90;;;;;;6276848;22;20165;-84
2023/03/31 10:25:51;;;;;;;10.83;3.77;;;13.30;99.90;;;;;;6277603;22;20212;-84
2023/03/31 10:28:21;;;;;;;8.57;2.73;;;13.40;99.90;;;;;;6277305;22;20169;-85
2023/03/31 10:30:50;;;;;;;10.97;2.53;;;13.40;99.90;;;;;;6277191;22;20222;-84
2023/03/31 10:33:20;;;;;;;9.43;3.40;;;13.40;99.90;;;;;;6277871;22;20441;-84
2023/03/31 10:35:49;;;;;;;8.93;2.73;;;13.40;99.90;;;;;;6278069;22;20176;-84
2023/03/31 10:38:23;;;;;;;10.60;3.20;;;13.40;99.90;;;;;;6276769;22;20169;-85
2023/03/31 10:40:52;;;;;;;11.13;3.00;;;13.40;99.90;;;;;;6275990;22;20240;-85
2023/03/31 10:43:22;;;;;;;8.30;3.03;;;13.40;99.90;;;;;;6277365;22;20611;-86
2023/03/31 10:45:50;;;;;;;15.57;3.43;;;13.30;99.90;;;;;;6276891;22;20785;-84
2023/03/31 10:48:19;;;;;;;13.47;3.33;;;13.20;99.90;;;;;;6276651;22;20188;-86
2023/03/31 10:50:48;;;;;;;10.30;3.50;;;13.10;99.90;;;;;;6277228;22;20224;-87
2023/03/31 10:53:17;;;;;;;12.13;3.47;;;13.00;99.90;;;;;;6277090;22;20243;-84
2023/03/31 10:55:56;;;;;;;13.77;5.17;;;12.90;99.90;;;;;;6277302;22;20196;-84
2023/03/31 10:58:36;;;;;;;9.07;2.60;;;12.80;99.90;;;;;;6277753;22;20164;-85
2023/03/31 11:01:12;;;;;;;7.80;2.87;;;12.80;99.90;;;;;;6277168;22;20167;-88
2023/03/31 11:03:55;;;;;;;10.60;3.47;;;12.70;99.90;;;;;;6277837;22;20161;-84
2023/03/31 11:06:28;;;;;;;10.63;3.23;;;12.70;99.90;;;;;;6277067;22;20242;-87
2023/03/31 11:09:13;;;;;;;11.20;3.33;;;12.60;99.90;;;;;;6277108;22;20613;-83
2023/03/31 11:11:55;;;;;;;9.67;3.60;;;12.60;99.90;;;;;;6277874;22;20195;-88
2023/03/31 11:14:33;;;;;;;11.30;3.10;;;12.60;99.90;;;;;;6277380;22;20477;-83
2023/03/31 11:17:07;;;;;;;12.70;2.80;;;12.60;99.90;;;;;;6277163;22;20161;-83
2023/03/31 11:19:42;;;;;;;13.77;3.00;;;12.50;99.90;;;;;;6274758;22;20234;-84
2023/03/31 11:22:16;;;;;;;8.93;2.30;;;12.50;99.90;;;;;;6277004;22;20632;-82
2023/03/31 11:25:08;;;;;;;9.70;2.37;;;12.50;99.90;;;;;;6277130;22;20268;-85
2023/03/31 11:27:50;;;;;;;8.87;3.00;;;12.50;99.90;;;;;;6270486;22;20169;-86
2023/03/31 11:30:24;;;;;;;7.17;2.37;;;12.50;99.90;;;;;;6276966;22;20200;-85
2023/03/31 11:33:04;;;;;;;9.07;2.07;;;12.50;99.90;;;;;;6277367;22;20169;-84
2023/03/31 11:35:49;;;;;;;9.00;2.33;;;12.60;99.90;;;;;;6276233;22;20218;-83
2023/03/31 11:38:32;;;;;;;11.37;3.10;;;12.60;99.90;;;;;;6276113;22;20164;-81
2023/03/31 11:41:02;;;;;;;9.47;2.37;;;12.60;99.90;;;;;;6275616;22;20161;-83
2023/03/31 11:43:33;;;;;;;8.40;2.13;;;12.60;99.90;;;;;;6276056;22;20251;-84
2023/03/31 11:46:07;;;;;;;6.97;2.10;;;12.70;99.90;;;;;;6275754;22;20493;-82
2023/03/31 11:48:40;;;;;;;8.57;2.30;;;12.60;99.90;;;;;;6272860;22;20498;-84
2023/03/31 11:51:14;;;;;;;8.03;2.10;;;12.60;99.90;;;;;;6274078;22;20331;-82
2023/03/31 11:53:43;;;;;;;8.50;2.33;;;12.60;99.90;;;;;;6275221;22;20165;-84
2023/03/31 11:56:12;;;;;;;6.97;2.20;;;12.60;99.90;;;;;;6273981;22;20202;-81
2023/03/31 11:58:43;;;;;;;8.60;2.37;;;12.50;99.90;;;;;;6274751;22;20585;-81
2023/03/31 12:01:18;;;;;;;7.37;2.63;;;12.60;99.90;;;;;;6247191;22;20172;-81
2023/03/31 12:03:54;;;;;;;9.80;2.80;;;12.60;99.90;;;;;;6274427;22;20168;-84
2023/03/31 12:06:23;;;;;;;7.60;2.53;;;12.60;99.90;;;;;;6274639;22;20186;-82
2023/03/31 12:09:03;;;;;;;7.03;2.23;;;12.60;99.90;;;;;;6274801;22;20757;-81
2023/03/31 12:11:35;;;;;;;11.40;3.40;;;12.60;99.90;;;;;;6275497;22;20219;-85
2023/03/31 12:14:14;;;;;;;7.70;2.63;;;12.60;99.90;;;;;;6275383;22;20169;-83
2023/03/31 12:16:46;;;;;;;9.17;2.97;;;12.60;99.90;;;;;;6275654;22;20167;-86
2023/03/31 12:19:18;;;;;;;6.50;2.10;;;12.70;99.90;;;;;;6276422;22;20177;-84
2023/03/31 12:21:50;;;;;;;8.33;2.43;;;12.70;99.90;;;;;;6276617;22;20275;-84
2023/03/31 12:24:17;;;;;;;12.43;2.93;;;12.60;99.90;;;;;;6276296;22;20273;-84
2023/03/31 12:26:52;;;;;;;7.47;2.43;;;12.60;99.90;;;;;;6275869;22;20627;-83
2023/03/31 12:29:27;;;;;;;8.27;2.40;;;12.60;99.90;;;;;;6275771;22;20240;-82
2023/03/31 12:31:59;;;;;;;5.83;1.77;;;12.60;99.90;;;;;;6276619;22;20271;-83
2023/03/31 12:34:28;;;;;;;8.40;2.37;;;12.50;99.90;;;;;;6275307;22;20164;-84
2023/03/31 12:37:16;;;;;;;7.13;1.90;;;12.60;99.90;;;;;;6275172;22;20570;-81
2023/03/31 12:39:55;;;;;;;9.57;3.40;;;12.60;99.90;;;;;;6270182;22;20257;-81
2023/03/31 12:42:40;;;;;;;7.70;2.27;;;12.60;99.90;;;;;;6275861;22;20161;-81
2023/03/31 12:45:15;;;;;;;9.17;2.53;;;12.70;99.90;;;;;;6274618;22;20252;-81
2023/03/31 12:48:07;;;;;;;5.63;1.90;;;12.70;99.90;;;;;;6275186;22;20797;-81
2023/03/31 12:50:48;;;;;;;9.90;1.73;;;12.70;99.90;;;;;;6274004;22;20261;-79
2023/03/31 12:53:24;;;;;;;4.40;1.90;;;12.80;99.90;;;;;;6275195;22;20161;-81
2023/03/31 12:55:56;;;;;;;4.27;1.80;;;12.70;99.90;;;;;;6275571;22;20168;-82
2023/03/31 12:58:44;;;;;;;6.40;1.67;;;12.70;99.90;;;;;;6274602;22;20163;-82
2023/03/31 13:01:17;;;;;;;6.37;2.20;;;12.70;99.90;;;;;;6274873;22;20479;-82